createdAt,value
2022-08-01T00:01:58.978Z,101682.91
2022-08-01T00:04:25.474Z,101686.53
2022-08-01T00:06:51.936Z,101684.53
2022-08-01T00:09:24.326Z,101684.53
2022-08-01T00:11:59.635Z,101684.75
2022-08-01T00:14:32.486Z,101687.38
2022-08-01T00:17:03.684Z,101688.25
2022-08-01T00:19:33.930Z,101690.00
2022-08-01T00:22:00.402Z,101700.66
2022-08-01T00:24:26.909Z,101696.81
2022-08-01T00:26:53.443Z,101694.97
2022-08-01T00:30:09.702Z,101699.69
2022-08-01T00:32:06.870Z,101702.63
2022-08-01T00:34:33.785Z,101703.00
2022-08-01T00:37:00.436Z,101702.25
2022-08-01T00:39:26.859Z,101695.16
2022-08-01T00:41:59.703Z,101695.44
2022-08-01T00:44:27.343Z,101691.94
2022-08-01T00:46:54.042Z,101697.63
2022-08-01T00:49:20.662Z,101696.66
2022-08-01T00:51:47.207Z,101695.91
2022-08-01T00:54:16.634Z,101701.38
2022-08-01T00:56:44.237Z,101707.81
2022-08-01T00:59:14.063Z,101698.75
2022-08-01T01:01:46.467Z,101698.66
2022-08-01T01:04:13.854Z,101708.69
2022-08-01T01:07:03.284Z,101700.38
2022-08-01T01:09:42.363Z,101697.63
2022-08-01T01:12:38.733Z,101698.53
2022-08-01T01:15:09.450Z,101702.22
2022-08-01T01:17:56.648Z,101696.88
2022-08-01T01:20:31.191Z,101699.88
2022-08-01T01:23:25.244Z,101696.13
2022-08-01T01:25:55.639Z,101704.31
2022-08-01T01:28:56.550Z,101699.63
2022-08-01T01:31:26.133Z,101693.41
2022-08-01T01:33:54.985Z,101704.31
2022-08-01T01:36:23.237Z,101699.63
2022-08-01T01:38:51.897Z,101697.78
2022-08-01T01:41:19.191Z,101698.53
2022-08-01T01:43:48.322Z,101704.72
2022-08-01T01:46:20.305Z,101703.72
2022-08-01T01:48:47.971Z,101701.84
2022-08-01T01:51:16.841Z,101703.84
2022-08-01T01:53:45.096Z,101705.81
2022-08-01T01:56:13.558Z,101711.53
2022-08-01T01:58:40.453Z,101706.31
2022-08-01T02:01:14.269Z,101709.28
2022-08-01T02:03:42.689Z,101715.72
2022-08-01T02:06:09.705Z,101717.69
2022-08-01T02:08:37.849Z,101711.50
2022-08-01T02:11:20.578Z,101721.44
2022-08-01T02:13:59.834Z,101727.88
2022-08-01T02:16:29.687Z,101724.28
2022-08-01T02:18:56.810Z,101729.84
2022-08-01T02:21:31.456Z,101725.25
2022-08-01T02:24:06.110Z,101721.66
2022-08-01T02:26:34.268Z,101727.97
2022-08-01T02:29:07.548Z,101736.53
2022-08-01T02:31:39.504Z,101740.13
2022-08-01T02:34:10.893Z,101731.06
2022-08-01T02:36:38.237Z,101743.97
2022-08-01T02:39:14.356Z,101742.84
2022-08-01T02:41:44.318Z,101740.97
2022-08-01T02:44:16.025Z,101750.06
2022-08-01T02:46:50.050Z,101750.06
2022-08-01T02:49:20.232Z,101749.16
2022-08-01T02:51:49.028Z,101750.19
2022-08-01T02:54:18.438Z,101751.16
2022-08-01T02:56:48.067Z,101749.53
2022-08-01T02:59:19.831Z,101747.81
2022-08-01T03:01:50.366Z,101753.38
2022-08-01T03:04:19.750Z,101754.50
2022-08-01T03:06:47.972Z,101748.41
2022-08-01T03:09:16.796Z,101755.06
2022-08-01T03:11:45.224Z,101753.31
2022-08-01T03:14:13.269Z,101755.28
2022-08-01T03:16:42.856Z,101753.78
2022-08-01T03:19:11.914Z,101754.78
2022-08-01T03:21:40.148Z,101754.00
2022-08-01T03:24:08.839Z,101757.72
2022-08-01T03:26:37.292Z,101765.16
2022-08-01T03:29:07.482Z,101766.28
2022-08-01T03:31:39.193Z,101763.66
2022-08-01T03:34:07.152Z,101768.34
2022-08-01T03:36:38.383Z,101773.56
2022-08-01T03:39:10.266Z,101771.09
2022-08-01T03:41:42.786Z,101777.66
2022-08-01T03:44:15.572Z,101777.75
2022-08-01T03:46:48.824Z,101767.06
2022-08-01T03:49:22.401Z,101788.88
2022-08-01T03:51:50.510Z,101788.00
2022-08-01T03:54:21.996Z,101789.97
2022-08-01T03:56:50.929Z,101787.47
2022-08-01T03:59:18.756Z,101791.31
2022-08-01T04:01:48.995Z,101795.25
2022-08-01T04:04:15.929Z,101798.41
2022-08-01T04:06:44.819Z,101800.38
2022-08-01T04:09:13.796Z,101796.88
2022-08-01T04:11:41.911Z,101801.78
2022-08-01T04:14:09.336Z,101801.25
2022-08-01T04:16:36.281Z,101804.19
2022-08-01T04:19:03.008Z,101794.81
2022-08-01T04:21:33.416Z,101804.00
2022-08-01T04:24:05.946Z,101815.09
2022-08-01T04:26:35.744Z,101793.19
2022-08-01T04:29:06.105Z,101798.00
2022-08-01T04:31:33.870Z,101804.44
2022-08-01T04:34:01.790Z,101807.94
2022-08-01T04:36:31.008Z,101812.47
2022-08-01T04:39:01.400Z,101813.38
2022-08-01T04:41:28.774Z,101823.38
2022-08-01T04:43:56.044Z,101823.38
2022-08-01T04:46:23.391Z,101822.50
2022-08-01T04:48:51.562Z,101828.81
2022-08-01T04:51:18.939Z,101826.88
2022-08-01T04:53:46.922Z,101832.22
2022-08-01T04:56:14.367Z,101833.22
2022-08-01T04:58:42.453Z,101838.66
2022-08-01T05:01:09.703Z,101840.63
2022-08-01T05:03:39.010Z,101837.66
2022-08-01T05:06:06.509Z,101842.16
2022-08-01T05:08:32.904Z,101847.59
2022-08-01T05:10:59.609Z,101845.38
2022-08-01T05:13:26.703Z,101852.34
2022-08-01T05:15:53.594Z,101850.19
2022-08-01T05:18:26.100Z,101847.16
2022-08-01T05:20:54.956Z,101843.34
2022-08-01T05:23:42.130Z,101852.69
2022-08-01T05:26:08.322Z,101851.38
2022-08-01T05:28:35.832Z,101854.56
2022-08-01T05:31:02.227Z,101846.69
2022-08-01T05:33:28.657Z,101850.41
2022-08-01T05:35:55.127Z,101846.28
2022-08-01T05:38:21.602Z,101847.16
2022-08-01T05:40:48.126Z,101850.41
2022-08-01T05:43:14.556Z,101861.72
2022-08-01T05:45:42.578Z,101854.31
2022-08-01T05:48:09.199Z,101854.97
2022-08-01T05:50:35.604Z,101858.25
2022-08-01T05:53:02.064Z,101860.78
2022-08-01T05:55:28.499Z,101865.34
2022-08-01T05:57:54.930Z,101862.59
2022-08-01T06:00:21.563Z,101865.97
2022-08-01T06:02:47.987Z,101873.31
2022-08-01T06:05:14.503Z,101873.00
2022-08-01T06:07:41.279Z,101871.72
2022-08-01T06:10:09.198Z,101883.22
2022-08-01T06:12:36.481Z,101870.34
2022-08-01T06:15:04.461Z,101876.28
2022-08-01T06:17:30.926Z,101872.56
2022-08-01T06:19:57.394Z,101873.25
2022-08-01T06:22:23.854Z,101876.22
2022-08-01T06:24:50.958Z,101876.38
2022-08-01T06:27:21.538Z,101870.53
2022-08-01T06:29:53.441Z,101876.00
2022-08-01T06:32:26.681Z,101879.97
2022-08-01T06:34:54.295Z,101875.88
2022-08-01T06:37:20.795Z,101881.38
2022-08-01T06:39:47.648Z,101882.34
2022-08-01T06:42:15.802Z,101883.09
2022-08-01T06:44:42.433Z,101883.38
2022-08-01T06:47:08.877Z,101882.47
2022-08-01T06:49:35.857Z,101885.47
2022-08-01T06:52:02.346Z,101890.78
2022-08-01T06:54:28.753Z,101889.56
2022-08-01T06:56:55.185Z,101896.72
2022-08-01T06:59:21.596Z,101893.16
2022-08-01T07:01:48.009Z,101894.38
2022-08-01T07:04:14.400Z,101895.38
2022-08-01T07:06:40.773Z,101899.34
2022-08-01T07:09:10.921Z,101903.09
2022-08-01T07:11:40.411Z,101902.69
2022-08-01T07:14:07.188Z,101901.38
2022-08-01T07:16:33.598Z,101895.91
2022-08-01T07:19:00.029Z,101904.03
2022-08-01T07:21:40.613Z,101906.97
2022-08-01T07:24:16.059Z,101901.72
2022-08-01T07:26:53.184Z,101905.72
2022-08-01T07:29:20.954Z,101902.63
2022-08-01T07:31:47.448Z,101905.63
2022-08-01T07:34:13.850Z,101908.94
2022-08-01T07:36:40.263Z,101913.63
2022-08-01T07:39:06.697Z,101913.22
2022-08-01T07:41:45.623Z,101920.91
2022-08-01T07:44:19.650Z,101932.06
2022-08-01T07:46:46.077Z,101939.53
2022-08-01T07:49:12.556Z,101937.66
2022-08-01T07:51:39.205Z,101946.47
2022-08-01T07:54:05.658Z,101952.00
2022-08-01T07:56:32.218Z,101951.50
2022-08-01T07:58:58.647Z,101956.22
2022-08-01T08:01:25.089Z,101953.09
2022-08-01T08:03:51.508Z,101959.19
2022-08-01T08:06:17.923Z,101951.63
2022-08-01T08:08:44.391Z,101957.22
2022-08-01T08:11:10.945Z,101947.59
2022-08-01T08:13:37.385Z,101951.13
2022-08-01T08:16:04.133Z,101949.94
2022-08-01T08:18:30.586Z,101960.19
2022-08-01T08:23:43.979Z,101956.97
2022-08-01T08:26:12.085Z,101954.28
2022-08-01T08:28:40.401Z,101953.53
2022-08-01T08:31:07.506Z,101951.81
2022-08-01T08:33:51.141Z,101948.34
2022-08-01T08:36:17.683Z,101965.69
2022-08-01T08:38:44.309Z,101964.75
2022-08-01T08:41:10.726Z,101969.47
2022-08-01T08:43:37.153Z,101967.44
2022-08-01T08:46:04.327Z,101969.22
2022-08-01T08:48:31.663Z,101965.59
2022-08-01T08:50:58.832Z,101969.94
2022-08-01T08:53:25.780Z,101965.09
2022-08-01T08:56:01.921Z,101973.88
2022-08-01T08:58:31.592Z,101967.31
2022-08-01T09:00:59.366Z,101968.66
2022-08-01T09:03:25.941Z,101971.16
2022-08-01T09:05:52.498Z,101981.88
2022-08-01T09:08:18.883Z,101969.00
2022-08-01T09:10:45.338Z,101976.38
2022-08-01T09:13:14.704Z,101978.25
2022-08-01T09:15:46.215Z,101981.88
2022-08-01T09:18:35.522Z,101974.50
2022-08-01T09:21:09.003Z,101981.41
2022-08-01T09:23:40.628Z,101992.72
2022-08-01T09:26:28.742Z,101998.91
2022-08-01T09:28:55.166Z,102001.25
2022-08-01T09:31:21.602Z,102006.44
2022-08-01T09:33:59.221Z,101999.19
2022-08-01T09:36:29.237Z,101992.59
2022-08-01T09:39:13.748Z,102001.16
2022-08-01T09:41:40.633Z,101999.03
2022-08-01T09:44:07.210Z,102005.41
2022-08-01T09:46:35.206Z,102005.63
2022-08-01T09:49:07.524Z,101996.13
2022-08-01T09:51:59.017Z,102005.91
2022-08-01T09:54:34.469Z,102009.41
2022-08-01T09:57:13.547Z,101997.50
2022-08-01T09:59:57.806Z,102009.50
2022-08-01T10:02:34.299Z,102012.84
2022-08-01T10:05:08.225Z,102012.94
2022-08-01T10:07:43.873Z,102002.03
2022-08-01T10:10:15.719Z,102007.78
2022-08-01T10:12:45.198Z,102010.56
2022-08-01T10:15:15.435Z,102003.28
2022-08-01T10:17:51.578Z,102004.59
2022-08-01T10:20:30.305Z,102007.78
2022-08-01T10:23:05.922Z,102003.22
2022-08-01T10:25:43.785Z,102010.66
2022-08-01T10:28:21.681Z,102012.00
2022-08-01T10:30:53.061Z,102017.59
2022-08-01T10:33:51.417Z,102010.38
2022-08-01T10:36:10.614Z,102016.59
2022-08-01T10:38:37.789Z,102012.59
2022-08-01T10:41:06.467Z,102015.44
2022-08-01T10:43:33.338Z,102015.16
2022-08-01T10:46:02.993Z,102008.78
2022-08-01T10:48:39.859Z,102008.38
2022-08-01T10:51:18.117Z,102002.56
2022-08-01T10:53:54.710Z,102011.00
2022-08-01T10:56:26.846Z,102017.34
2022-08-01T10:59:06.552Z,102019.69
2022-08-01T11:01:38.636Z,102019.38
2022-08-01T11:04:16.581Z,102020.75
2022-08-01T11:06:49.775Z,102013.75
2022-08-01T11:09:36.501Z,102016.97
2022-08-01T11:12:08.166Z,102015.28
2022-08-01T11:15:08.367Z,102015.06
2022-08-01T11:17:48.403Z,102020.53
2022-08-01T11:20:22.400Z,102023.16
2022-08-01T11:23:03.012Z,102022.72
2022-08-01T11:26:03.470Z,102016.75
2022-08-01T11:28:35.726Z,102014.53
2022-08-01T11:31:03.109Z,102023.94
2022-08-01T11:33:52.265Z,102022.78
2022-08-01T11:36:55.403Z,102023.06
2022-08-01T11:39:13.761Z,102025.22
2022-08-01T11:41:41.533Z,102018.19
2022-08-01T11:44:14.350Z,102016.94
2022-08-01T11:46:49.872Z,102021.16
2022-08-01T11:49:35.208Z,102020.84
2022-08-01T11:52:12.213Z,102014.00
2022-08-01T11:54:41.506Z,102018.31
2022-08-01T11:57:10.910Z,102012.84
2022-08-01T12:00:03.711Z,102021.47
2022-08-01T12:02:35.207Z,102006.97
2022-08-01T12:05:12.729Z,102025.53
2022-08-01T12:07:44.530Z,102022.03
2022-08-01T12:10:12.171Z,102025.88
2022-08-01T12:12:44.609Z,102024.91
2022-08-01T12:15:11.767Z,102025.34
2022-08-01T12:17:40.371Z,102017.03
2022-08-01T12:20:14.044Z,102027.25
2022-08-01T12:22:41.484Z,102030.38
2022-08-01T12:25:10.753Z,102027.63
2022-08-01T12:27:38.872Z,102022.31
2022-08-01T12:30:09.343Z,102025.00
2022-08-01T12:32:38.472Z,102013.13
2022-08-01T12:35:11.531Z,102016.59
2022-08-01T12:37:42.704Z,102018.25
2022-08-01T12:40:22.109Z,102016.69
2022-08-01T12:42:55.225Z,102020.25
2022-08-01T12:45:31.415Z,102026.31
2022-08-01T12:48:00.473Z,102018.75
2022-08-01T12:50:31.653Z,102025.38
2022-08-01T12:52:59.513Z,102029.72
2022-08-01T12:55:34.324Z,102029.22
2022-08-01T12:58:13.906Z,102022.09
2022-08-01T13:00:45.066Z,102021.72
2022-08-01T13:03:21.906Z,102024.09
2022-08-01T13:05:51.221Z,102008.50
2022-08-01T13:08:20.031Z,102014.41
2022-08-01T13:10:47.262Z,102009.53
2022-08-01T13:13:27.774Z,102010.25
2022-08-01T13:16:06.249Z,102004.00
2022-08-01T13:18:34.327Z,102002.06
2022-08-01T13:21:17.472Z,102001.50
2022-08-01T13:24:06.113Z,101999.31
2022-08-01T13:26:52.341Z,102004.84
2022-08-01T13:29:22.465Z,101998.94
2022-08-01T13:31:49.069Z,101991.53
2022-08-01T13:34:16.471Z,101994.63
2022-08-01T13:36:49.043Z,101997.78
2022-08-01T13:39:34.241Z,102000.19
2022-08-01T13:42:01.713Z,101994.84
2022-08-01T13:44:28.266Z,101998.78
2022-08-01T13:46:54.749Z,102003.59
2022-08-01T13:49:22.813Z,102001.75
2022-08-01T13:51:51.459Z,102001.22
2022-08-01T13:54:18.767Z,101989.59
2022-08-01T13:56:45.222Z,101992.03
2022-08-01T13:59:11.651Z,101984.44
2022-08-01T14:01:38.198Z,101979.94
2022-08-01T14:04:05.201Z,101983.59
2022-08-01T14:06:33.102Z,101973.44
2022-08-01T14:08:59.641Z,101982.66
2022-08-01T14:11:28.583Z,101981.22
2022-08-01T14:13:58.374Z,101976.03
2022-08-01T14:16:25.101Z,101968.66
2022-08-01T14:18:51.700Z,101965.00
2022-08-01T14:21:20.235Z,101966.56
2022-08-01T14:23:46.642Z,101973.19
2022-08-01T14:26:13.206Z,101968.00
2022-08-01T14:28:40.168Z,101975.59
2022-08-01T14:31:07.266Z,101966.16
2022-08-01T14:33:34.294Z,101974.31
2022-08-01T14:36:20.717Z,101973.22
2022-08-01T14:38:48.058Z,101979.28
2022-08-01T14:41:15.650Z,101976.00
2022-08-01T14:43:42.420Z,101968.38
2022-08-01T14:46:10.780Z,101966.63
2022-08-01T14:48:37.264Z,101979.22
2022-08-01T14:51:05.059Z,101980.50
2022-08-01T14:53:34.327Z,101982.63
2022-08-01T14:56:03.700Z,101986.75
2022-08-01T14:58:30.138Z,101983.31
2022-08-01T15:00:59.303Z,101983.34
2022-08-01T15:03:26.323Z,101989.53
2022-08-01T15:05:52.737Z,101993.00
2022-08-01T15:08:19.201Z,101984.44
2022-08-01T15:10:45.676Z,101979.06
2022-08-01T15:13:12.106Z,101980.13
2022-08-01T15:15:38.567Z,101997.78
2022-08-01T15:18:05.385Z,101996.47
2022-08-01T15:20:32.109Z,101992.78
2022-08-01T15:22:58.771Z,101995.78
2022-08-01T15:25:25.171Z,101988.41
2022-08-01T15:27:52.182Z,101988.69
2022-08-01T15:30:27.170Z,101990.78
2022-08-01T15:32:56.247Z,101993.41
2022-08-01T15:35:22.766Z,101982.47
2022-08-01T15:37:49.183Z,101981.31
2022-08-01T15:40:15.667Z,101989.13
2022-08-01T15:42:42.121Z,101986.28
2022-08-01T15:45:20.646Z,101985.03
2022-08-01T15:47:56.801Z,101978.31
2022-08-01T15:50:23.429Z,101985.88
2022-08-01T15:52:49.900Z,101982.06
2022-08-01T15:55:16.318Z,101972.72
2022-08-01T15:57:42.709Z,101976.56
2022-08-01T16:00:10.045Z,101972.44
2022-08-01T16:02:36.444Z,101959.06
2022-08-01T16:05:02.905Z,101964.41
2022-08-01T16:07:29.414Z,101955.03
2022-08-01T16:09:55.976Z,101955.03
2022-08-01T16:12:22.430Z,101958.47
2022-08-01T16:14:48.834Z,101957.81
2022-08-01T16:17:15.245Z,101954.53
2022-08-01T16:19:42.029Z,101948.34
2022-08-01T16:22:08.797Z,101956.97
2022-08-01T16:24:36.288Z,101960.88
2022-08-01T16:27:02.724Z,101959.34
2022-08-01T16:29:31.372Z,101959.03
2022-08-01T16:32:27.866Z,101953.66
2022-08-01T16:34:46.946Z,101946.34
2022-08-01T16:37:14.600Z,101960.13
2022-08-01T16:39:41.153Z,101948.03
2022-08-01T16:42:08.312Z,101947.09
2022-08-01T16:44:34.942Z,101940.84
2022-08-01T16:47:05.694Z,101951.44
2022-08-01T16:49:32.482Z,101954.91
2022-08-01T16:51:59.186Z,101945.63
2022-08-01T16:54:26.393Z,101946.66
2022-08-01T16:56:53.849Z,101944.06
2022-08-01T16:59:20.287Z,101945.03
2022-08-01T17:01:59.394Z,101951.91
2022-08-01T17:04:28.263Z,101953.69
2022-08-01T17:06:54.891Z,101952.53
2022-08-01T17:09:21.485Z,101945.78
2022-08-01T17:11:47.927Z,101945.59
2022-08-01T17:14:15.092Z,101948.47
2022-08-01T17:16:42.148Z,101944.44
2022-08-01T17:19:08.815Z,101944.22
2022-08-01T17:21:36.391Z,101948.91
2022-08-01T17:24:05.633Z,101945.59
2022-08-01T17:26:32.106Z,101958.00
2022-08-01T17:28:58.560Z,101954.97
2022-08-01T17:31:24.972Z,101961.28
2022-08-01T17:33:54.724Z,101967.59
2022-08-01T17:36:21.725Z,101955.16
2022-08-01T17:38:48.410Z,101953.00
2022-08-01T17:41:15.033Z,101963.81
2022-08-01T17:43:41.551Z,101962.47
2022-08-01T17:46:08.293Z,101961.22
2022-08-01T17:48:34.904Z,101944.91
2022-08-01T17:51:01.475Z,101951.28
2022-08-01T17:53:30.866Z,101947.97
2022-08-01T17:55:58.872Z,101950.78
2022-08-01T17:58:46.005Z,101952.06
2022-08-01T18:01:14.704Z,101954.53
2022-08-01T18:03:41.966Z,101942.81
2022-08-01T18:06:10.536Z,101948.50
2022-08-01T18:08:40.278Z,101949.69
2022-08-01T18:11:07.754Z,101941.47
2022-08-01T18:13:34.172Z,101939.63
2022-08-01T18:16:06.747Z,101939.97
2022-08-01T18:18:34.244Z,101933.16
2022-08-01T18:21:04.524Z,101943.00
2022-08-01T18:23:33.489Z,101934.72
2022-08-01T18:26:02.236Z,101941.66
2022-08-01T18:28:36.632Z,101943.81
2022-08-01T18:31:06.096Z,101949.03
2022-08-01T18:33:35.854Z,101951.22
2022-08-01T18:36:04.547Z,101951.28
2022-08-01T18:38:32.895Z,101945.41
2022-08-01T18:41:00.793Z,101948.63
2022-08-01T18:43:29.838Z,101947.19
2022-08-01T18:45:57.475Z,101945.00
2022-08-01T18:48:24.275Z,101950.06
2022-08-01T18:50:50.923Z,101955.56
2022-08-01T18:53:18.677Z,101956.00
2022-08-01T18:55:45.185Z,101955.84
2022-08-01T18:58:11.687Z,101956.72
2022-08-01T19:00:39.715Z,101956.84
2022-08-01T19:03:06.328Z,101969.28
2022-08-01T19:05:36.131Z,101966.13
2022-08-01T19:08:06.954Z,101974.78
2022-08-01T19:10:39.341Z,101963.22
2022-08-01T19:13:06.286Z,101972.81
2022-08-01T19:15:32.772Z,101964.16
2022-08-01T19:17:59.447Z,101958.66
2022-08-01T19:20:26.312Z,101959.34
2022-08-01T19:22:52.752Z,101966.59
2022-08-01T19:25:19.286Z,101966.63
2022-08-01T19:27:49.300Z,101964.69
2022-08-01T19:30:17.466Z,101958.28
2022-08-01T19:32:48.928Z,101960.06
2022-08-01T19:35:17.029Z,101969.03
2022-08-01T19:37:47.293Z,101970.25
2022-08-01T19:40:26.321Z,101974.75
2022-08-01T19:42:55.835Z,101969.94
2022-08-01T19:45:22.570Z,101968.16
2022-08-01T19:47:56.042Z,101976.00
2022-08-01T19:50:22.743Z,101985.25
2022-08-01T19:52:51.388Z,101986.78
2022-08-01T19:55:18.771Z,101987.41
2022-08-01T19:57:59.366Z,101986.22
2022-08-01T20:00:37.042Z,101999.16
2022-08-01T20:03:03.936Z,101988.38
2022-08-01T20:05:30.804Z,101999.69
2022-08-01T20:07:58.545Z,101991.94
2022-08-01T20:10:25.097Z,101983.50
2022-08-01T20:12:53.152Z,101987.91
2022-08-01T20:15:22.317Z,101992.78
2022-08-01T20:17:48.704Z,102000.94
2022-08-01T20:20:15.161Z,101982.84
2022-08-01T20:22:46.191Z,101990.47
2022-08-01T20:25:12.806Z,101990.22
2022-08-01T20:27:43.135Z,101996.84
2022-08-01T20:30:10.275Z,101992.56
2022-08-01T20:32:40.258Z,101990.44
2022-08-01T20:35:07.749Z,101984.47
2022-08-01T20:38:06.413Z,101979.97
2022-08-01T20:40:26.861Z,101983.97
2022-08-01T20:42:53.964Z,101981.94
2022-08-01T20:45:22.346Z,101980.19
2022-08-01T20:47:50.208Z,101981.44
2022-08-01T20:50:54.386Z,101976.91
2022-08-01T20:53:27.416Z,101978.25
2022-08-01T20:56:32.143Z,101983.34
2022-08-01T20:59:06.434Z,101974.78
2022-08-01T21:01:49.372Z,101982.38
2022-08-01T21:04:40.968Z,101981.09
2022-08-01T21:07:28.820Z,101972.16
2022-08-01T21:10:11.472Z,101972.34
2022-08-01T21:13:02.636Z,101974.13
2022-08-01T21:16:12.601Z,101967.13
2022-08-01T21:19:03.683Z,101976.16
2022-08-01T21:21:35.655Z,101965.09
2022-08-01T21:24:21.974Z,101973.66
2022-08-01T21:26:50.180Z,101959.28
2022-08-01T21:29:20.087Z,101961.22
2022-08-01T21:32:08.613Z,101957.50
2022-08-01T21:34:38.194Z,101964.91
2022-08-01T21:37:09.410Z,101955.09
2022-08-01T21:39:37.097Z,101961.22
2022-08-01T21:42:08.438Z,101962.94
2022-08-01T21:44:38.722Z,101963.16
2022-08-01T21:47:11.776Z,101962.19
2022-08-01T21:49:40.644Z,101952.28
2022-08-01T21:52:17.992Z,101961.22
2022-08-01T21:55:01.432Z,101965.88
2022-08-01T21:58:00.385Z,101968.78
2022-08-01T22:00:26.944Z,101964.03
2022-08-01T22:03:01.177Z,101961.59
2022-08-01T22:05:49.521Z,101952.00
2022-08-01T22:08:43.945Z,101953.63
2022-08-01T22:11:14.000Z,101948.97
2022-08-01T22:13:42.004Z,101941.00
2022-08-01T22:16:10.114Z,101937.34
2022-08-01T22:18:36.552Z,101939.84
2022-08-01T22:21:04.136Z,101937.88
2022-08-01T22:23:36.778Z,101930.91
2022-08-01T22:26:08.053Z,101928.09
2022-08-01T22:28:36.036Z,101925.47
2022-08-01T22:31:03.236Z,101926.38
2022-08-01T22:33:30.688Z,101923.06
2022-08-01T22:35:58.405Z,101925.69
2022-08-01T22:38:24.953Z,101922.19
2022-08-01T22:41:08.727Z,101918.38
2022-08-01T22:43:54.182Z,101917.53
2022-08-01T22:46:58.017Z,101914.59
2022-08-01T22:50:09.765Z,101917.22
2022-08-01T22:52:54.946Z,101915.97
2022-08-01T22:55:24.322Z,101909.44
2022-08-01T22:58:03.251Z,101906.63
2022-08-01T23:00:32.597Z,101915.56
2022-08-01T23:03:03.593Z,101912.75
2022-08-01T23:05:33.054Z,101911.88
2022-08-01T23:08:04.075Z,101907.22
2022-08-01T23:10:30.492Z,101912.66
2022-08-01T23:12:57.526Z,101908.94
2022-08-01T23:15:25.008Z,101908.94
2022-08-01T23:17:54.417Z,101907.00
2022-08-01T23:20:21.531Z,101908.00
2022-08-01T23:22:49.400Z,101903.72
2022-08-01T23:25:16.064Z,101902.28
2022-08-01T23:27:51.776Z,101903.53
2022-08-01T23:30:33.645Z,101896.34
2022-08-01T23:33:00.404Z,101900.22
2022-08-01T23:35:28.405Z,101900.63
2022-08-01T23:38:02.219Z,101898.13
2022-08-01T23:40:31.274Z,101894.50
2022-08-01T23:42:57.998Z,101894.81
2022-08-01T23:45:24.518Z,101896.56
2022-08-01T23:47:51.646Z,101892.31
2022-08-01T23:50:18.365Z,101890.25
2022-08-01T23:52:48.287Z,101885.88
2022-08-01T23:55:16.742Z,101891.91
2022-08-01T23:57:43.694Z,101884.81
